Meath Environmental Platform

Observations for Trim Market St

Time AQI Temp °C Hum % Pres Pa CO μg/m³ H₂S μg/m³ NO μg/m³ NO₂ μg/m³ O₃ μg/m³ SO₂ μg/m³ PM1 μg/m³ PM2.5 μg/m³ PM10 μg/m³
Wednesday 19 August 2026
07:25 2 14.9 86 2,147,483,647 0.38 0 2.41 8.68 46.48 0 0.71 0.93 3.79
07:24 2 14.9 86 2,147,483,647 0.38 0 2.42 9.1 48.17 0 0.71 1.4 4.32
07:23 2 14.9 86 2,147,483,647 0.38 0 2.42 8.43 42.44 0 0.71 1.39 4.33
07:22 2 14.8 86 2,147,483,647 0.39 0 2.44 9.77 42.92 0 0.71 2.32 5.4
07:21 2 14.8 86 2,147,483,647 0.39 0 2.43 7.35 44.85 0 0.71 1.85 4.86
07:19 2 14.8 86 2,147,483,647 0.38 0 2.42 7.71 47.46 0 0.71 0.92 3.8
07:15 2 14.6 86 2,147,483,647 0.39 0 2.46 7.43 42.48 0 0.71 0.91 3.81
07:13 2 14.6 86 2,147,483,647 0.39 0 2.47 8.98 50.87 0 0 1.37 4.87
07:10 2 14.5 86 2,147,483,647 0.4 0 2.49 7.82 46.38 0 0.71 1.37 4.35
07:05 2 14.4 86 2,147,483,647 0.4 0 2.5 7.95 48.08 0 0 0.9 4.88
07:00 2 14.3 86 2,147,483,647 0.39 0 2.51 10.23 53.06 0 0.71 1.82 5.94
06:59 2 14.2 86 2,147,483,647 0.4 0 2.54 10.9 48.93 0 0.71 1.82 5.41
06:58 2 14.2 86 2,147,483,647 0.42 0 2.54 10.9 48.93 0 0.71 1.36 4.36
06:57 2 14.2 86 2,147,483,647 0.43 0 2.54 8.43 46.69 0 0.71 2.74 7
06:56 2 14.2 86 2,147,483,647 0.4 0 2.54 11.07 52.5 0 0 0.43 3.3
06:55 2 14.2 86 2,147,483,647 0.39 0 2.54 7.55 42.06 0 0 0.89 3.83
06:54 2 14.2 86 2,147,483,647 0.4 0 2.54 11.52 54.59 0 0 0.89 4.36
06:53 2 14.2 86 2,147,483,647 0.4 0 2.54 9.56 50.84 0 0.71 1.35 4.36
06:52 2 14.1 86 2,147,483,647 0.41 0 2.56 11.15 48.15 0 0.71 1.35 5.95
06:51 2 14.2 86 2,147,483,647 0.42 0 2.54 10.43 56.44 0 2.14 2.74 5.95